Atlantic Beach, NC (28512)

2:55 PM EDT on August 30, 2014 (GMT -0400)
Out on the dock @ Old Causeway | Change Station
CLOSE
Current Station
Personal Weather Station
Location: Atlantic Beach, NC
Elevation: 4 ft
Nearby Weather Stations

Elev 4 ft 34.71 °N, 76.75 °W | Updated 3 seconds ago

Partly Cloudy
Partly Cloudy
85.1 °F
Feels Like 99 °F
N
6.0
Wind Variable Wind from South
Gusts 9.0 mph

Today
High -- | Low -- °F
--% Chance of Precip.
Yesterday
High -- | Low -- °F
Precip. -- in
6:38 AM 7:36 PM
Waxing Crescent, 24% visible
Pressure 30.20 in
Visibility 10.0 miles
Clouds Clear
Heat Index 99 °F
Dew Point 80 °F
Humidity 84%
Rainfall 0.00 in
Snow Depth Not available.
UV 10 out of 12
Pollen 8.00 out of 12
Air Quality Not available.
Flu Activity Not available.
METAR KMRH 301758Z AUTO 17008KT 10SM CLR 30/24 A3020 RMK AO2 SLP225 T03000239 10300 20250 58009 TSNO

More Conditions Fewer Conditions

Pressure 30.20 in
Visibility 10.0 miles
Clouds Clear
Heat Index 99 °F
Dew Point 80 °F
Humidity 84%
Rainfall 0.00 in
Snow Depth Not available.
UV 10 out of 12
Pollen 8.00 out of 12
Air Quality Not available.
Flu Activity Not available.
METAR KMRH 301758Z AUTO 17008KT 10SM CLR 30/24 A3020 RMK AO2 SLP225 T03000239 10300 20250 58009 TSNO

More Conditions Fewer Conditions

10-Day Weather Forecast

Almanac

Astronomy

Aug. 30, 2014 Rise Set
Actual Time 6:38 AM EDT 7:36 PM EDT
Civil Twilight 6:12 AM EDT 8:02 PM EDT
Nautical Twilight 5:42 AM EDT 8:32 PM EDT
Astronomical Twilight 5:10 AM EDT 9:04 PM EDT
Moon 11:11 AM EDT 10:22 PM EDT
Length of Visible Light 13h 49m
Length of Day
12h 57m
Tomorrow will be 2m 4s shorter.
Waxing Crescent, 24% of the Moon is Illuminated
Today
Waxing Crescent
Sep 2
First Quarter
Sep 8
Full
Sep 15
Last Quarter
Sep 24
New

Today's Extremes

State Highs State Lows

Community

WunderPhotos

Upload Photos

1,748,593 photos uploaded!

WunderBlogs® & News

Nearby

Snow Depth

Station Depth Elevation
No new snow has been reported.

Earthquake Activity

City Distance Mag. Time & Date
No recent earthquake activity has been reported nearby.
Minimum magnitude displayed is 2.5.

Coastal Water Temperatures

Place Temperature
Beaufort, NC 81.0 °F
Johnny Mercer Pier, Wrightsville Beach, NC 84.0 °F
Hatteras, NC 81.0 °F
Oregon Inlet Marina, NC 78.1 °F

Nearby Weather Stations